This is the latest recevied weather packets stored in our database for station/object WX5HOT. If no packets are shown the sender has not sent any weather packets the latest 10 day(s).
| Time | Temp. | Humidity | Pressure | Rain* | Wind** | Luminosity | Snow |
|---|---|---|---|---|---|---|---|
| 1777151889 | 22.22° C | 76% | 1059.7 hPa | 0 mm | - | 600 W/m² | - |
| 1777151585 | 21.67° C | 75% | 1059.9 hPa | 0 mm | - | 604 W/m² | - |
| 1777151282 | 21.67° C | 76% | 1059.7 hPa | 0 mm | - | 636 W/m² | - |
| 1777150978 | 21.67° C | 76% | 1060.1 hPa | 0 mm | - | 360 W/m² | - |
| 1777150677 | 21.67° C | 77% | 1059.9 hPa | 0 mm | - | 691 W/m² | - |
| 1777150374 | 21.67° C | 78% | 1060.2 hPa | 0 mm | - | 272 W/m² | - |
| 1777150070 | 21.67° C | 78% | 1060.1 hPa | 0 mm | - | 767 W/m² | - |
| 1777149766 | 21.67° C | 76% | 1060.3 hPa | 0 mm | - | 247 W/m² | - |
| 1777149463 | 21.67° C | 77% | 1060.3 hPa | 0 mm | - | 316 W/m² | - |
| 1777149159 | 21.11° C | 78% | 1060.4 hPa | 0 mm | - | 251 W/m² | - |
| 1777148858 | 20.56° C | 80% | 1060.2 hPa | 0 mm | - | 669 W/m² | - |
| 1777148556 | 21.11° C | 77% | 1060.3 hPa | 0 mm | - | 748 W/m² | - |
| 1777148251 | 20.56° C | 80% | 1060.3 hPa | 0 mm | - | 535 W/m² | - |
| 1777147949 | 20° C | 84% | 1060.5 hPa | 0 mm | - | 815 W/m² | - |
| 1777147644 | 21.11° C | 78% | 1060.5 hPa | 0 mm | - | 854 W/m² | - |
| 1777147339 | 20° C | 82% | 1060.8 hPa | 0 mm | - | 874 W/m² | - |
| 1777147035 | 20° C | 80% | 1060.5 hPa | 0 mm | - | 858 W/m² | - |
| 1777146732 | 20.56° C | 79% | 1060.7 hPa | 0 mm | - | 580 W/m² | - |
| 1777146427 | 20.56° C | 82% | 1060.5 hPa | 0 mm | - | 838 W/m² | - |
| 1777146125 | 20° C | 82% | 1060.6 hPa | 0 mm | - | 853 W/m² | - |
| 1777145824 | 19.44° C | 84% | 1060.6 hPa | 0 mm | - | 861 W/m² | - |
| 1777145522 | 18.89° C | 86% | 1060.8 hPa | 0 mm | - | 878 W/m² | - |
| 1777145216 | 18.89° C | 85% | 1060.7 hPa | 0 mm | - | 989 W/m² | - |
| 1777144912 | 19.44° C | 84% | 1060.8 hPa | 0 mm | - | 392 W/m² | - |
| 1777144611 | 20° C | 82% | 1061 hPa | 0 mm | - | 1074 W/m² | - |
* Rain latest hour (hover to see other rain measurements)
** Current wind speed in m/s (hover to see current wind gust speed)